sensor_id;sensor_type;location;lat;lon;timestamp;P1;durP1;ratioP1;P2;durP2;ratioP2
21497;SDS011;10910;50.932;0.246;2022-11-04T00:01:23;0.65;;;0.65;;
21497;SDS011;10910;50.932;0.246;2022-11-04T00:03:49;0.70;;;0.70;;
21497;SDS011;10910;50.932;0.246;2022-11-04T00:06:17;0.57;;;0.57;;
21497;SDS011;10910;50.932;0.246;2022-11-04T00:08:47;0.70;;;0.70;;
21497;SDS011;10910;50.932;0.246;2022-11-04T00:11:23;0.70;;;0.70;;
21497;SDS011;10910;50.932;0.246;2022-11-04T00:14:08;0.70;;;0.70;;
21497;SDS011;10910;50.932;0.246;2022-11-04T00:16:35;0.47;;;0.47;;
21497;SDS011;10910;50.932;0.246;2022-11-04T00:19:26;0.60;;;0.60;;
21497;SDS011;10910;50.932;0.246;2022-11-04T00:21:52;0.63;;;0.63;;
21497;SDS011;10910;50.932;0.246;2022-11-04T00:24:38;0.60;;;0.60;;
21497;SDS011;10910;50.932;0.246;2022-11-04T00:27:10;0.70;;;0.70;;
21497;SDS011;10910;50.932;0.246;2022-11-04T00:29:55;0.70;;;0.70;;
21497;SDS011;10910;50.932;0.246;2022-11-04T00:32:22;0.70;;;0.70;;
21497;SDS011;10910;50.932;0.246;2022-11-04T00:35:07;0.60;;;0.60;;
21497;SDS011;10910;50.932;0.246;2022-11-04T00:37:37;0.80;;;0.80;;
21497;SDS011;10910;50.932;0.246;2022-11-04T00:40:07;0.50;;;0.50;;
21497;SDS011;10910;50.932;0.246;2022-11-04T00:42:34;0.70;;;0.70;;
21497;SDS011;10910;50.932;0.246;2022-11-04T00:45:00;0.60;;;0.60;;
21497;SDS011;10910;50.932;0.246;2022-11-04T00:47:26;0.60;;;0.60;;
21497;SDS011;10910;50.932;0.246;2022-11-04T00:49:53;0.52;;;0.52;;
21497;SDS011;10910;50.932;0.246;2022-11-04T00:52:19;0.65;;;0.65;;
21497;SDS011;10910;50.932;0.246;2022-11-04T00:54:45;0.60;;;0.60;;
21497;SDS011;10910;50.932;0.246;2022-11-04T00:57:15;0.70;;;0.70;;
21497;SDS011;10910;50.932;0.246;2022-11-04T00:59:44;0.50;;;0.50;;
21497;SDS011;10910;50.932;0.246;2022-11-04T01:02:10;0.70;;;0.70;;
21497;SDS011;10910;50.932;0.246;2022-11-04T01:04:37;0.60;;;0.60;;
21497;SDS011;10910;50.932;0.246;2022-11-04T01:07:04;0.60;;;0.60;;
21497;SDS011;10910;50.932;0.246;2022-11-04T01:09:30;0.60;;;0.60;;
21497;SDS011;10910;50.932;0.246;2022-11-04T01:11:56;0.60;;;0.60;;
21497;SDS011;10910;50.932;0.246;2022-11-04T01:14:22;0.60;;;0.60;;
21497;SDS011;10910;50.932;0.246;2022-11-04T01:16:48;0.60;;;0.60;;
21497;SDS011;10910;50.932;0.246;2022-11-04T01:19:15;0.60;;;0.60;;
21497;SDS011;10910;50.932;0.246;2022-11-04T01:21:41;0.60;;;0.60;;
21497;SDS011;10910;50.932;0.246;2022-11-04T01:24:08;0.63;;;0.63;;
21497;SDS011;10910;50.932;0.246;2022-11-04T01:26:37;0.68;;;0.68;;
21497;SDS011;10910;50.932;0.246;2022-11-04T01:29:03;0.60;;;0.60;;
21497;SDS011;10910;50.932;0.246;2022-11-04T01:31:30;0.60;;;0.60;;
21497;SDS011;10910;50.932;0.246;2022-11-04T01:33:56;0.52;;;0.52;;
21497;SDS011;10910;50.932;0.246;2022-11-04T01:36:24;0.60;;;0.60;;
21497;SDS011;10910;50.932;0.246;2022-11-04T01:38:53;0.70;;;0.70;;
21497;SDS011;10910;50.932;0.246;2022-11-04T01:41:22;0.60;;;0.60;;
21497;SDS011;10910;50.932;0.246;2022-11-04T01:43:50;0.50;;;0.50;;
21497;SDS011;10910;50.932;0.246;2022-11-04T01:46:21;0.57;;;0.57;;
21497;SDS011;10910;50.932;0.246;2022-11-04T01:48:49;0.70;;;0.70;;
21497;SDS011;10910;50.932;0.246;2022-11-04T01:51:17;0.80;;;0.80;;
21497;SDS011;10910;50.932;0.246;2022-11-04T01:53:43;0.70;;;0.70;;
21497;SDS011;10910;50.932;0.246;2022-11-04T01:56:10;0.63;;;0.63;;
21497;SDS011;10910;50.932;0.246;2022-11-04T01:58:39;0.55;;;0.55;;
21497;SDS011;10910;50.932;0.246;2022-11-04T02:01:07;0.70;;;0.70;;
21497;SDS011;10910;50.932;0.246;2022-11-04T02:03:58;0.70;;;0.70;;
21497;SDS011;10910;50.932;0.246;2022-11-04T02:06:56;0.60;;;0.60;;
21497;SDS011;10910;50.932;0.246;2022-11-04T02:09:23;0.60;;;0.60;;
21497;SDS011;10910;50.932;0.246;2022-11-04T02:11:49;0.80;;;0.80;;
21497;SDS011;10910;50.932;0.246;2022-11-04T02:14:34;0.70;;;0.70;;
21497;SDS011;10910;50.932;0.246;2022-11-04T02:17:04;0.70;;;0.70;;
21497;SDS011;10910;50.932;0.246;2022-11-04T02:30:03;0.80;;;0.80;;
21497;SDS011;10910;50.932;0.246;2022-11-04T02:35:24;0.60;;;0.60;;
21497;SDS011;10910;50.932;0.246;2022-11-04T02:40:35;0.75;;;0.75;;
21497;SDS011;10910;50.932;0.246;2022-11-04T02:43:02;0.70;;;0.70;;
21497;SDS011;10910;50.932;0.246;2022-11-04T02:45:46;0.60;;;0.60;;
21497;SDS011;10910;50.932;0.246;2022-11-04T02:48:19;0.70;;;0.70;;
21497;SDS011;10910;50.932;0.246;2022-11-04T02:50:50;0.70;;;0.70;;
21497;SDS011;10910;50.932;0.246;2022-11-04T02:53:19;0.60;;;0.60;;
21497;SDS011;10910;50.932;0.246;2022-11-04T02:55:47;0.65;;;0.65;;
21497;SDS011;10910;50.932;0.246;2022-11-04T02:58:18;0.68;;;0.68;;
21497;SDS011;10910;50.932;0.246;2022-11-04T03:00:46;0.70;;;0.70;;
21497;SDS011;10910;50.932;0.246;2022-11-04T03:03:16;0.60;;;0.60;;
21497;SDS011;10910;50.932;0.246;2022-11-04T03:05:45;0.60;;;0.60;;
21497;SDS011;10910;50.932;0.246;2022-11-04T03:08:18;0.60;;;0.60;;
21497;SDS011;10910;50.932;0.246;2022-11-04T03:10:49;0.57;;;0.57;;
21497;SDS011;10910;50.932;0.246;2022-11-04T03:13:18;0.70;;;0.70;;
21497;SDS011;10910;50.932;0.246;2022-11-04T03:15:47;0.70;;;0.70;;
21497;SDS011;10910;50.932;0.246;2022-11-04T03:18:17;0.73;;;0.73;;
21497;SDS011;10910;50.932;0.246;2022-11-04T03:20:45;0.70;;;0.70;;
21497;SDS011;10910;50.932;0.246;2022-11-04T03:23:13;0.60;;;0.60;;
21497;SDS011;10910;50.932;0.246;2022-11-04T03:25:40;0.68;;;0.68;;
21497;SDS011;10910;50.932;0.246;2022-11-04T03:30:38;0.70;;;0.70;;
21497;SDS011;10910;50.932;0.246;2022-11-04T03:33:17;0.60;;;0.60;;
21497;SDS011;10910;50.932;0.246;2022-11-04T03:35:44;0.65;;;0.65;;
21497;SDS011;10910;50.932;0.246;2022-11-04T03:38:10;0.70;;;0.70;;
21497;SDS011;10910;50.932;0.246;2022-11-04T03:40:36;0.70;;;0.70;;
21497;SDS011;10910;50.932;0.246;2022-11-04T03:43:04;0.70;;;0.70;;
21497;SDS011;10910;50.932;0.246;2022-11-04T03:45:32;0.60;;;0.60;;
21497;SDS011;10910;50.932;0.246;2022-11-04T03:47:58;0.70;;;0.70;;
21497;SDS011;10910;50.932;0.246;2022-11-04T03:50:26;0.70;;;0.70;;
21497;SDS011;10910;50.932;0.246;2022-11-04T03:52:52;0.70;;;0.70;;
21497;SDS011;10910;50.932;0.246;2022-11-04T03:55:19;0.68;;;0.68;;
21497;SDS011;10910;50.932;0.246;2022-11-04T03:57:51;0.57;;;0.57;;
21497;SDS011;10910;50.932;0.246;2022-11-04T04:00:20;0.70;;;0.70;;
21497;SDS011;10910;50.932;0.246;2022-11-04T04:05:42;0.60;;;0.60;;
21497;SDS011;10910;50.932;0.246;2022-11-04T04:10:41;0.60;;;0.60;;
21497;SDS011;10910;50.932;0.246;2022-11-04T04:13:46;0.70;;;0.70;;
21497;SDS011;10910;50.932;0.246;2022-11-04T04:16:26;0.70;;;0.70;;
21497;SDS011;10910;50.932;0.246;2022-11-04T04:18:57;0.73;;;0.73;;
21497;SDS011;10910;50.932;0.246;2022-11-04T04:21:28;0.70;;;0.70;;
21497;SDS011;10910;50.932;0.246;2022-11-04T04:23:57;0.60;;;0.60;;
21497;SDS011;10910;50.932;0.246;2022-11-04T04:26:43;0.70;;;0.70;;
21497;SDS011;10910;50.932;0.246;2022-11-04T04:29:29;0.80;;;0.80;;
21497;SDS011;10910;50.932;0.246;2022-11-04T04:31:55;0.70;;;0.70;;
21497;SDS011;10910;50.932;0.246;2022-11-04T04:34:30;0.50;;;0.50;;
21497;SDS011;10910;50.932;0.246;2022-11-04T04:39:23;0.70;;;0.70;;
21497;SDS011;10910;50.932;0.246;2022-11-04T04:42:09;0.70;;;0.70;;
21497;SDS011;10910;50.932;0.246;2022-11-04T04:44:54;0.63;;;0.63;;
21497;SDS011;10910;50.932;0.246;2022-11-04T04:47:23;0.70;;;0.70;;
21497;SDS011;10910;50.932;0.246;2022-11-04T04:49:58;0.80;;;0.80;;
21497;SDS011;10910;50.932;0.246;2022-11-04T04:52:25;0.70;;;0.70;;
21497;SDS011;10910;50.932;0.246;2022-11-04T04:54:52;0.80;;;0.80;;
21497;SDS011;10910;50.932;0.246;2022-11-04T04:57:18;0.75;;;0.75;;
21497;SDS011;10910;50.932;0.246;2022-11-04T04:59:44;0.70;;;0.70;;
21497;SDS011;10910;50.932;0.246;2022-11-04T05:02:10;0.70;;;0.70;;
21497;SDS011;10910;50.932;0.246;2022-11-04T05:04:36;0.60;;;0.60;;
21497;SDS011;10910;50.932;0.246;2022-11-04T05:07:02;0.80;;;0.80;;
21497;SDS011;10910;50.932;0.246;2022-11-04T05:09:28;0.60;;;0.60;;
21497;SDS011;10910;50.932;0.246;2022-11-04T05:11:54;0.70;;;0.70;;
21497;SDS011;10910;50.932;0.246;2022-11-04T05:14:20;0.80;;;0.80;;
21497;SDS011;10910;50.932;0.246;2022-11-04T05:16:46;0.80;;;0.80;;
21497;SDS011;10910;50.932;0.246;2022-11-04T05:19:12;0.73;;;0.73;;
21497;SDS011;10910;50.932;0.246;2022-11-04T05:21:39;0.70;;;0.70;;
21497;SDS011;10910;50.932;0.246;2022-11-04T05:24:05;0.70;;;0.70;;
21497;SDS011;10910;50.932;0.246;2022-11-04T05:26:31;0.77;;;0.77;;
21497;SDS011;10910;50.932;0.246;2022-11-04T05:28:57;0.80;;;0.80;;
21497;SDS011;10910;50.932;0.246;2022-11-04T05:31:23;0.80;;;0.80;;
21497;SDS011;10910;50.932;0.246;2022-11-04T05:33:49;0.80;;;0.80;;
21497;SDS011;10910;50.932;0.246;2022-11-04T05:36:15;0.73;;;0.73;;
21497;SDS011;10910;50.932;0.246;2022-11-04T05:38:41;0.70;;;0.70;;
21497;SDS011;10910;50.932;0.246;2022-11-04T05:41:09;0.80;;;0.80;;
21497;SDS011;10910;50.932;0.246;2022-11-04T05:43:35;0.80;;;0.80;;
21497;SDS011;10910;50.932;0.246;2022-11-04T05:46:01;0.80;;;0.80;;
21497;SDS011;10910;50.932;0.246;2022-11-04T05:48:27;0.70;;;0.70;;
21497;SDS011;10910;50.932;0.246;2022-11-04T05:50:54;0.80;;;0.80;;
21497;SDS011;10910;50.932;0.246;2022-11-04T05:53:20;0.70;;;0.70;;
21497;SDS011;10910;50.932;0.246;2022-11-04T05:55:46;0.70;;;0.70;;
21497;SDS011;10910;50.932;0.246;2022-11-04T05:58:12;0.70;;;0.70;;
21497;SDS011;10910;50.932;0.246;2022-11-04T06:00:39;0.70;;;0.70;;
21497;SDS011;10910;50.932;0.246;2022-11-04T06:03:05;0.60;;;0.60;;
21497;SDS011;10910;50.932;0.246;2022-11-04T06:05:31;0.80;;;0.80;;
21497;SDS011;10910;50.932;0.246;2022-11-04T06:07:57;0.80;;;0.80;;
21497;SDS011;10910;50.932;0.246;2022-11-04T06:10:23;0.70;;;0.70;;
21497;SDS011;10910;50.932;0.246;2022-11-04T06:12:49;0.70;;;0.70;;
21497;SDS011;10910;50.932;0.246;2022-11-04T06:15:15;0.63;;;0.63;;
21497;SDS011;10910;50.932;0.246;2022-11-04T06:17:41;0.80;;;0.80;;
21497;SDS011;10910;50.932;0.246;2022-11-04T06:20:08;0.60;;;0.60;;
21497;SDS011;10910;50.932;0.246;2022-11-04T06:22:34;0.70;;;0.70;;
21497;SDS011;10910;50.932;0.246;2022-11-04T06:25:00;0.70;;;0.70;;
21497;SDS011;10910;50.932;0.246;2022-11-04T06:27:26;0.70;;;0.70;;
21497;SDS011;10910;50.932;0.246;2022-11-04T06:29:53;0.75;;;0.75;;
21497;SDS011;10910;50.932;0.246;2022-11-04T06:32:19;0.70;;;0.70;;
21497;SDS011;10910;50.932;0.246;2022-11-04T06:34:45;0.80;;;0.80;;
21497;SDS011;10910;50.932;0.246;2022-11-04T06:37:11;0.60;;;0.60;;
21497;SDS011;10910;50.932;0.246;2022-11-04T06:39:37;0.70;;;0.70;;
21497;SDS011;10910;50.932;0.246;2022-11-04T06:42:03;0.70;;;0.70;;
21497;SDS011;10910;50.932;0.246;2022-11-04T06:44:30;0.65;;;0.65;;
21497;SDS011;10910;50.932;0.246;2022-11-04T06:46:58;0.70;;;0.70;;
21497;SDS011;10910;50.932;0.246;2022-11-04T06:49:24;0.80;;;0.80;;
21497;SDS011;10910;50.932;0.246;2022-11-04T06:51:50;0.82;;;0.82;;
21497;SDS011;10910;50.932;0.246;2022-11-04T06:54:16;0.80;;;0.80;;
21497;SDS011;10910;50.932;0.246;2022-11-04T06:56:43;0.80;;;0.80;;
21497;SDS011;10910;50.932;0.246;2022-11-04T06:59:13;0.75;;;0.75;;
21497;SDS011;10910;50.932;0.246;2022-11-04T07:01:40;0.75;;;0.75;;
21497;SDS011;10910;50.932;0.246;2022-11-04T07:04:06;0.75;;;0.75;;
21497;SDS011;10910;50.932;0.246;2022-11-04T07:06:32;0.80;;;0.80;;
21497;SDS011;10910;50.932;0.246;2022-11-04T07:08:59;0.90;;;0.90;;
21497;SDS011;10910;50.932;0.246;2022-11-04T07:11:26;0.80;;;0.80;;
21497;SDS011;10910;50.932;0.246;2022-11-04T07:13:53;0.90;;;0.90;;
21497;SDS011;10910;50.932;0.246;2022-11-04T07:16:19;0.70;;;0.70;;
21497;SDS011;10910;50.932;0.246;2022-11-04T07:18:45;0.70;;;0.70;;
21497;SDS011;10910;50.932;0.246;2022-11-04T07:21:13;0.90;;;0.90;;
21497;SDS011;10910;50.932;0.246;2022-11-04T07:23:39;0.60;;;0.60;;
21497;SDS011;10910;50.932;0.246;2022-11-04T07:26:06;0.70;;;0.70;;
21497;SDS011;10910;50.932;0.246;2022-11-04T07:28:33;0.70;;;0.70;;
21497;SDS011;10910;50.932;0.246;2022-11-04T07:31:00;0.70;;;0.70;;
21497;SDS011;10910;50.932;0.246;2022-11-04T07:33:27;0.80;;;0.80;;
21497;SDS011;10910;50.932;0.246;2022-11-04T07:35:53;0.70;;;0.70;;
21497;SDS011;10910;50.932;0.246;2022-11-04T07:38:20;0.70;;;0.70;;
21497;SDS011;10910;50.932;0.246;2022-11-04T07:40:46;0.68;;;0.68;;
21497;SDS011;10910;50.932;0.246;2022-11-04T07:43:12;0.60;;;0.60;;
21497;SDS011;10910;50.932;0.246;2022-11-04T07:45:38;0.70;;;0.70;;
21497;SDS011;10910;50.932;0.246;2022-11-04T07:48:05;0.70;;;0.70;;
21497;SDS011;10910;50.932;0.246;2022-11-04T07:50:32;0.82;;;0.82;;
21497;SDS011;10910;50.932;0.246;2022-11-04T07:52:58;0.70;;;0.70;;
21497;SDS011;10910;50.932;0.246;2022-11-04T07:55:25;0.70;;;0.70;;
21497;SDS011;10910;50.932;0.246;2022-11-04T07:57:52;0.75;;;0.75;;
21497;SDS011;10910;50.932;0.246;2022-11-04T08:00:19;0.80;;;0.80;;
21497;SDS011;10910;50.932;0.246;2022-11-04T08:02:45;0.60;;;0.60;;
21497;SDS011;10910;50.932;0.246;2022-11-04T08:05:11;0.70;;;0.70;;
21497;SDS011;10910;50.932;0.246;2022-11-04T08:07:38;0.77;;;0.77;;
21497;SDS011;10910;50.932;0.246;2022-11-04T08:10:04;0.70;;;0.70;;
21497;SDS011;10910;50.932;0.246;2022-11-04T08:12:30;0.70;;;0.70;;
21497;SDS011;10910;50.932;0.246;2022-11-04T08:14:57;0.60;;;0.60;;
21497;SDS011;10910;50.932;0.246;2022-11-04T08:17:23;0.70;;;0.70;;
21497;SDS011;10910;50.932;0.246;2022-11-04T08:19:50;0.60;;;0.60;;
21497;SDS011;10910;50.932;0.246;2022-11-04T08:22:16;0.60;;;0.60;;
21497;SDS011;10910;50.932;0.246;2022-11-04T08:24:42;0.50;;;0.50;;
21497;SDS011;10910;50.932;0.246;2022-11-04T08:27:11;0.50;;;0.50;;
21497;SDS011;10910;50.932;0.246;2022-11-04T08:29:37;0.60;;;0.60;;
21497;SDS011;10910;50.932;0.246;2022-11-04T08:32:03;0.60;;;0.60;;
21497;SDS011;10910;50.932;0.246;2022-11-04T08:34:29;0.50;;;0.50;;
21497;SDS011;10910;50.932;0.246;2022-11-04T08:36:55;0.68;;;0.68;;
21497;SDS011;10910;50.932;0.246;2022-11-04T08:39:22;0.50;;;0.50;;
21497;SDS011;10910;50.932;0.246;2022-11-04T08:41:48;0.60;;;0.60;;
21497;SDS011;10910;50.932;0.246;2022-11-04T08:44:15;0.60;;;0.60;;
21497;SDS011;10910;50.932;0.246;2022-11-04T08:46:42;0.60;;;0.60;;
21497;SDS011;10910;50.932;0.246;2022-11-04T08:49:08;0.60;;;0.60;;
21497;SDS011;10910;50.932;0.246;2022-11-04T08:51:35;0.50;;;0.50;;
21497;SDS011;10910;50.932;0.246;2022-11-04T08:54:03;0.50;;;0.50;;
21497;SDS011;10910;50.932;0.246;2022-11-04T08:56:30;0.60;;;0.60;;
21497;SDS011;10910;50.932;0.246;2022-11-04T08:58:56;0.50;;;0.50;;
21497;SDS011;10910;50.932;0.246;2022-11-04T09:01:23;0.50;;;0.50;;
21497;SDS011;10910;50.932;0.246;2022-11-04T09:03:49;0.50;;;0.50;;
21497;SDS011;10910;50.932;0.246;2022-11-04T09:06:20;0.50;;;0.50;;
21497;SDS011;10910;50.932;0.246;2022-11-04T09:08:47;0.40;;;0.40;;
21497;SDS011;10910;50.932;0.246;2022-11-04T09:11:13;0.50;;;0.50;;
21497;SDS011;10910;50.932;0.246;2022-11-04T09:13:41;0.60;;;0.60;;
21497;SDS011;10910;50.932;0.246;2022-11-04T09:16:07;0.50;;;0.50;;
21497;SDS011;10910;50.932;0.246;2022-11-04T09:18:34;0.55;;;0.55;;
21497;SDS011;10910;50.932;0.246;2022-11-04T09:21:01;0.50;;;0.50;;
21497;SDS011;10910;50.932;0.246;2022-11-04T09:23:27;0.50;;;0.50;;
21497;SDS011;10910;50.932;0.246;2022-11-04T09:25:53;0.55;;;0.55;;
21497;SDS011;10910;50.932;0.246;2022-11-04T09:28:21;0.50;;;0.50;;
21497;SDS011;10910;50.932;0.246;2022-11-04T09:30:47;0.60;;;0.60;;
21497;SDS011;10910;50.932;0.246;2022-11-04T09:33:13;0.63;;;0.63;;
21497;SDS011;10910;50.932;0.246;2022-11-04T09:35:39;0.50;;;0.50;;
21497;SDS011;10910;50.932;0.246;2022-11-04T09:38:05;0.60;;;0.60;;
21497;SDS011;10910;50.932;0.246;2022-11-04T09:40:32;0.60;;;0.60;;
21497;SDS011;10910;50.932;0.246;2022-11-04T09:45:49;0.60;;;0.60;;
21497;SDS011;10910;50.932;0.246;2022-11-04T09:48:26;0.60;;;0.60;;
21497;SDS011;10910;50.932;0.246;2022-11-04T09:50:54;0.60;;;0.60;;
21497;SDS011;10910;50.932;0.246;2022-11-04T09:58:13;0.60;;;0.60;;
21497;SDS011;10910;50.932;0.246;2022-11-04T10:00:40;0.70;;;0.70;;
21497;SDS011;10910;50.932;0.246;2022-11-04T10:08:37;0.70;;;0.70;;
21497;SDS011;10910;50.932;0.246;2022-11-04T10:16:58;0.73;;;0.73;;
21497;SDS011;10910;50.932;0.246;2022-11-04T10:24:48;0.50;;;0.50;;
21497;SDS011;10910;50.932;0.246;2022-11-04T10:27:27;0.60;;;0.60;;
21497;SDS011;10910;50.932;0.246;2022-11-04T10:30:15;0.60;;;0.60;;
21497;SDS011;10910;50.932;0.246;2022-11-04T10:32:47;0.60;;;0.60;;
21497;SDS011;10910;50.932;0.246;2022-11-04T10:37:47;0.60;;;0.60;;
21497;SDS011;10910;50.932;0.246;2022-11-04T10:40:19;0.70;;;0.70;;
21497;SDS011;10910;50.932;0.246;2022-11-04T10:42:46;0.60;;;0.60;;
21497;SDS011;10910;50.932;0.246;2022-11-04T10:45:12;0.60;;;0.60;;
21497;SDS011;10910;50.932;0.246;2022-11-04T10:53:08;0.60;;;0.60;;
21497;SDS011;10910;50.932;0.246;2022-11-04T10:55:38;0.50;;;0.50;;
21497;SDS011;10910;50.932;0.246;2022-11-04T10:58:10;0.50;;;0.50;;
21497;SDS011;10910;50.932;0.246;2022-11-04T11:00:38;0.40;;;0.40;;
21497;SDS011;10910;50.932;0.246;2022-11-04T11:03:22;0.40;;;0.40;;
21497;SDS011;10910;50.932;0.246;2022-11-04T11:05:49;0.40;;;0.40;;
21497;SDS011;10910;50.932;0.246;2022-11-04T11:08:29;0.40;;;0.40;;
21497;SDS011;10910;50.932;0.246;2022-11-04T11:10:56;0.30;;;0.30;;
21497;SDS011;10910;50.932;0.246;2022-11-04T11:13:23;0.30;;;0.30;;
21497;SDS011;10910;50.932;0.246;2022-11-04T11:15:50;0.30;;;0.30;;
21497;SDS011;10910;50.932;0.246;2022-11-04T11:18:28;0.40;;;0.40;;
21497;SDS011;10910;50.932;0.246;2022-11-04T11:21:07;0.30;;;0.30;;
21497;SDS011;10910;50.932;0.246;2022-11-04T11:26:00;0.20;;;0.20;;
21497;SDS011;10910;50.932;0.246;2022-11-04T11:28:27;0.28;;;0.28;;
21497;SDS011;10910;50.932;0.246;2022-11-04T11:30:57;0.30;;;0.30;;
21497;SDS011;10910;50.932;0.246;2022-11-04T11:33:25;0.30;;;0.30;;
21497;SDS011;10910;50.932;0.246;2022-11-04T11:38:36;0.30;;;0.30;;
21497;SDS011;10910;50.932;0.246;2022-11-04T11:41:06;0.20;;;0.20;;
21497;SDS011;10910;50.932;0.246;2022-11-04T11:43:34;0.25;;;0.25;;
21497;SDS011;10910;50.932;0.246;2022-11-04T11:46:01;0.30;;;0.30;;
21497;SDS011;10910;50.932;0.246;2022-11-04T11:50:57;0.20;;;0.20;;
21497;SDS011;10910;50.932;0.246;2022-11-04T11:53:24;0.30;;;0.30;;
21497;SDS011;10910;50.932;0.246;2022-11-04T11:59:00;0.30;;;0.30;;
21497;SDS011;10910;50.932;0.246;2022-11-04T12:01:33;0.30;;;0.30;;
21497;SDS011;10910;50.932;0.246;2022-11-04T12:04:02;0.30;;;0.30;;
21497;SDS011;10910;50.932;0.246;2022-11-04T12:11:57;0.30;;;0.30;;
21497;SDS011;10910;50.932;0.246;2022-11-04T12:17:17;0.20;;;0.20;;
21497;SDS011;10910;50.932;0.246;2022-11-04T12:28:08;0.40;;;0.40;;
21497;SDS011;10910;50.932;0.246;2022-11-04T12:30:34;0.30;;;0.30;;
21497;SDS011;10910;50.932;0.246;2022-11-04T12:33:20;0.30;;;0.30;;
21497;SDS011;10910;50.932;0.246;2022-11-04T12:48:59;0.30;;;0.30;;
21497;SDS011;10910;50.932;0.246;2022-11-04T12:51:19;0.20;;;0.20;;
21497;SDS011;10910;50.932;0.246;2022-11-04T12:53:51;0.30;;;0.30;;
21497;SDS011;10910;50.932;0.246;2022-11-04T12:56:21;0.40;;;0.40;;
21497;SDS011;10910;50.932;0.246;2022-11-04T12:59:19;0.40;;;0.40;;
21497;SDS011;10910;50.932;0.246;2022-11-04T13:01:51;0.30;;;0.30;;
21497;SDS011;10910;50.932;0.246;2022-11-04T13:04:19;0.30;;;0.30;;
21497;SDS011;10910;50.932;0.246;2022-11-04T13:06:52;0.30;;;0.30;;
21497;SDS011;10910;50.932;0.246;2022-11-04T13:09:24;0.40;;;0.40;;
21497;SDS011;10910;50.932;0.246;2022-11-04T13:12:00;0.30;;;0.30;;
21497;SDS011;10910;50.932;0.246;2022-11-04T13:14:46;0.35;;;0.35;;
21497;SDS011;10910;50.932;0.246;2022-11-04T13:17:14;0.32;;;0.32;;
21497;SDS011;10910;50.932;0.246;2022-11-04T13:19:44;0.32;;;0.32;;
21497;SDS011;10910;50.932;0.246;2022-11-04T13:22:12;0.30;;;0.30;;
21497;SDS011;10910;50.932;0.246;2022-11-04T13:24:45;0.40;;;0.40;;
21497;SDS011;10910;50.932;0.246;2022-11-04T13:27:15;0.40;;;0.40;;
21497;SDS011;10910;50.932;0.246;2022-11-04T13:29:43;0.30;;;0.30;;
21497;SDS011;10910;50.932;0.246;2022-11-04T13:32:16;0.30;;;0.30;;
21497;SDS011;10910;50.932;0.246;2022-11-04T13:35:00;0.40;;;0.40;;
21497;SDS011;10910;50.932;0.246;2022-11-04T13:38:04;0.47;;;0.47;;
21497;SDS011;10910;50.932;0.246;2022-11-04T13:40:56;0.43;;;0.43;;
21497;SDS011;10910;50.932;0.246;2022-11-04T13:43:23;0.40;;;0.40;;
21497;SDS011;10910;50.932;0.246;2022-11-04T13:48:33;0.50;;;0.50;;
21497;SDS011;10910;50.932;0.246;2022-11-04T13:51:05;0.47;;;0.47;;
21497;SDS011;10910;50.932;0.246;2022-11-04T13:53:39;0.40;;;0.40;;
21497;SDS011;10910;50.932;0.246;2022-11-04T13:56:07;0.40;;;0.40;;
21497;SDS011;10910;50.932;0.246;2022-11-04T13:58:33;0.30;;;0.30;;
21497;SDS011;10910;50.932;0.246;2022-11-04T14:01:10;0.40;;;0.40;;
21497;SDS011;10910;50.932;0.246;2022-11-04T14:03:38;0.40;;;0.40;;
21497;SDS011;10910;50.932;0.246;2022-11-04T14:06:06;0.43;;;0.43;;
21497;SDS011;10910;50.932;0.246;2022-11-04T14:08:33;0.52;;;0.52;;
21497;SDS011;10910;50.932;0.246;2022-11-04T14:11:01;0.40;;;0.40;;
21497;SDS011;10910;50.932;0.246;2022-11-04T14:16:03;0.30;;;0.30;;
21497;SDS011;10910;50.932;0.246;2022-11-04T14:18:30;0.30;;;0.30;;
21497;SDS011;10910;50.932;0.246;2022-11-04T14:21:39;0.30;;;0.30;;
21497;SDS011;10910;50.932;0.246;2022-11-04T14:27:00;0.35;;;0.35;;
21497;SDS011;10910;50.932;0.246;2022-11-04T14:31:37;0.30;;;0.30;;
21497;SDS011;10910;50.932;0.246;2022-11-04T14:34:04;0.32;;;0.32;;
21497;SDS011;10910;50.932;0.246;2022-11-04T14:36:32;0.40;;;0.40;;
21497;SDS011;10910;50.932;0.246;2022-11-04T14:43:59;0.28;;;0.28;;
21497;SDS011;10910;50.932;0.246;2022-11-04T14:46:29;0.32;;;0.32;;
21497;SDS011;10910;50.932;0.246;2022-11-04T14:48:56;0.20;;;0.20;;
21497;SDS011;10910;50.932;0.246;2022-11-04T14:51:28;0.28;;;0.28;;
21497;SDS011;10910;50.932;0.246;2022-11-04T14:54:02;0.30;;;0.30;;
21497;SDS011;10910;50.932;0.246;2022-11-04T14:56:29;0.30;;;0.30;;
21497;SDS011;10910;50.932;0.246;2022-11-04T14:59:02;0.30;;;0.30;;
21497;SDS011;10910;50.932;0.246;2022-11-04T15:01:35;0.40;;;0.40;;
21497;SDS011;10910;50.932;0.246;2022-11-04T15:04:19;0.40;;;0.40;;
21497;SDS011;10910;50.932;0.246;2022-11-04T15:06:59;0.40;;;0.40;;
21497;SDS011;10910;50.932;0.246;2022-11-04T15:09:32;0.30;;;0.30;;
21497;SDS011;10910;50.932;0.246;2022-11-04T15:12:11;0.40;;;0.40;;
21497;SDS011;10910;50.932;0.246;2022-11-04T15:14:56;0.50;;;0.50;;
21497;SDS011;10910;50.932;0.246;2022-11-04T15:17:24;0.60;;;0.60;;
21497;SDS011;10910;50.932;0.246;2022-11-04T15:19:51;0.50;;;0.50;;
21497;SDS011;10910;50.932;0.246;2022-11-04T15:22:18;0.40;;;0.40;;
21497;SDS011;10910;50.932;0.246;2022-11-04T15:24:45;0.50;;;0.50;;
21497;SDS011;10910;50.932;0.246;2022-11-04T15:27:15;0.60;;;0.60;;
21497;SDS011;10910;50.932;0.246;2022-11-04T15:29:55;0.60;;;0.60;;
21497;SDS011;10910;50.932;0.246;2022-11-04T15:32:21;0.60;;;0.60;;
21497;SDS011;10910;50.932;0.246;2022-11-04T15:34:48;0.50;;;0.50;;
21497;SDS011;10910;50.932;0.246;2022-11-04T15:37:14;0.50;;;0.50;;
21497;SDS011;10910;50.932;0.246;2022-11-04T15:39:44;0.60;;;0.60;;
21497;SDS011;10910;50.932;0.246;2022-11-04T15:42:33;0.50;;;0.50;;
21497;SDS011;10910;50.932;0.246;2022-11-04T15:48:22;0.60;;;0.60;;
21497;SDS011;10910;50.932;0.246;2022-11-04T15:51:32;0.60;;;0.60;;
21497;SDS011;10910;50.932;0.246;2022-11-04T15:56:13;0.50;;;0.50;;
21497;SDS011;10910;50.932;0.246;2022-11-04T15:58:40;0.55;;;0.55;;
21497;SDS011;10910;50.932;0.246;2022-11-04T16:01:07;0.52;;;0.52;;
21497;SDS011;10910;50.932;0.246;2022-11-04T16:03:38;0.50;;;0.50;;
21497;SDS011;10910;50.932;0.246;2022-11-04T16:06:06;0.50;;;0.50;;
21497;SDS011;10910;50.932;0.246;2022-11-04T16:08:32;0.63;;;0.63;;
21497;SDS011;10910;50.932;0.246;2022-11-04T16:13:33;0.70;;;0.70;;
21497;SDS011;10910;50.932;0.246;2022-11-04T16:18:38;0.65;;;0.65;;
21497;SDS011;10910;50.932;0.246;2022-11-04T16:21:07;0.60;;;0.60;;
21497;SDS011;10910;50.932;0.246;2022-11-04T16:23:37;0.68;;;0.68;;
21497;SDS011;10910;50.932;0.246;2022-11-04T16:26:07;0.70;;;0.70;;
21497;SDS011;10910;50.932;0.246;2022-11-04T16:28:34;0.70;;;0.70;;
21497;SDS011;10910;50.932;0.246;2022-11-04T16:31:04;0.60;;;0.60;;
21497;SDS011;10910;50.932;0.246;2022-11-04T16:33:49;0.70;;;0.70;;
21497;SDS011;10910;50.932;0.246;2022-11-04T16:36:16;0.50;;;0.50;;
21497;SDS011;10910;50.932;0.246;2022-11-04T16:41:18;0.70;;;0.70;;
21497;SDS011;10910;50.932;0.246;2022-11-04T16:43:44;0.80;;;0.80;;
21497;SDS011;10910;50.932;0.246;2022-11-04T16:46:10;0.70;;;0.70;;
21497;SDS011;10910;50.932;0.246;2022-11-04T16:48:36;0.70;;;0.70;;
21497;SDS011;10910;50.932;0.246;2022-11-04T16:51:02;0.70;;;0.70;;
21497;SDS011;10910;50.932;0.246;2022-11-04T16:53:29;0.70;;;0.70;;
21497;SDS011;10910;50.932;0.246;2022-11-04T16:55:55;0.70;;;0.70;;
21497;SDS011;10910;50.932;0.246;2022-11-04T16:58:22;0.70;;;0.70;;
21497;SDS011;10910;50.932;0.246;2022-11-04T17:00:48;0.70;;;0.70;;
21497;SDS011;10910;50.932;0.246;2022-11-04T17:03:15;0.68;;;0.68;;
21497;SDS011;10910;50.932;0.246;2022-11-04T17:05:49;0.70;;;0.70;;
21497;SDS011;10910;50.932;0.246;2022-11-04T17:08:17;0.70;;;0.70;;
21497;SDS011;10910;50.932;0.246;2022-11-04T17:10:44;0.60;;;0.60;;